Time;durP1;ratioP1;P1;durP2;ratioP2;P2;SDS_P1;SDS_P2;PMS_P1;PMS_P2;Temp;Humidity;BMP_temperature;BMP_pressure;BME280_temperature;BME280_humidity;BME280_pressure;Samples;Min_cycle;Max_cycle;Signal;HPM_P1;HPM_P2
2022/10/24 00:00:08;;;;;;;9.05;3.95;;;;;;;;;;5010296;28;20433;-70
2022/10/24 00:02:34;;;;;;;15.30;5.15;;;;;;;;;;5010440;28;20095;-70
2022/10/24 00:05:00;;;;;;;12.82;4.03;;;;;;;;;;4992618;28;20536;-70
2022/10/24 00:07:26;;;;;;;7.50;3.90;;;;;;;;;;5012160;28;20040;-70
2022/10/24 00:09:52;;;;;;;12.10;4.20;;;;;;;;;;4991365;28;20041;-70
2022/10/24 00:12:18;;;;;;;15.10;4.70;;;;;;;;;;5010360;28;20037;-70
2022/10/24 00:14:45;;;;;;;10.60;4.22;;;;;;;;;;5009600;28;20038;-70
2022/10/24 00:17:11;;;;;;;12.57;4.45;;;;;;;;;;5009267;28;20026;-70
2022/10/24 00:19:37;;;;;;;18.13;4.57;;;;;;;;;;5009502;28;20373;-70
2022/10/24 00:22:03;;;;;;;11.80;4.53;;;;;;;;;;4992328;28;20033;-70
2022/10/24 00:24:29;;;;;;;15.50;4.97;;;;;;;;;;5009447;28;20056;-70
2022/10/24 00:26:55;;;;;;;9.65;4.28;;;;;;;;;;5009483;28;20038;-69
2022/10/24 00:29:22;;;;;;;22.13;4.90;;;;;;;;;;4991086;28;20827;-70
2022/10/24 00:31:48;;;;;;;21.20;5.70;;;;;;;;;;5011163;28;20088;-70
2022/10/24 00:34:14;;;;;;;15.30;4.80;;;;;;;;;;5010924;28;20029;-69
2022/10/24 00:36:40;;;;;;;13.25;4.40;;;;;;;;;;5009411;28;20450;-70
2022/10/24 00:39:07;;;;;;;14.73;4.50;;;;;;;;;;5007421;28;20504;-70
2022/10/24 00:41:35;;;;;;;14.93;4.13;;;;;;;;;;5008720;28;20076;-69
2022/10/24 00:44:23;;;;;;;19.70;4.00;;;;;;;;;;5007019;28;20111;-69
2022/10/24 00:46:49;;;;;;;16.48;5.50;;;;;;;;;;5007996;28;20052;-69
2022/10/24 00:49:17;;;;;;;15.45;3.90;;;;;;;;;;5007602;28;20449;-69
2022/10/24 00:51:43;;;;;;;16.45;4.57;;;;;;;;;;5009213;28;20061;-70
2022/10/24 00:54:12;;;;;;;11.93;4.07;;;;;;;;;;5005810;28;20045;-69
2022/10/24 00:56:41;;;;;;;20.15;4.60;;;;;;;;;;5008256;28;20049;-69
2022/10/24 00:59:08;;;;;;;12.93;4.45;;;;;;;;;;5017144;28;20014;-70
2022/10/24 01:01:34;;;;;;;15.05;3.55;;;;;;;;;;5010569;28;20096;-70
2022/10/24 01:04:01;;;;;;;16.10;4.07;;;;;;;;;;5007890;28;20044;-70
2022/10/24 01:06:35;;;;;;;14.93;3.30;;;;;;;;;;5007777;28;20065;-69
2022/10/24 01:09:21;;;;;;;12.40;3.47;;;;;;;;;;5011245;28;20265;-69
2022/10/24 01:11:57;;;;;;;16.92;3.67;;;;;;;;;;5005801;28;20467;-70
2022/10/24 01:14:26;;;;;;;15.50;3.22;;;;;;;;;;5005285;28;20038;-69
2022/10/24 01:17:04;;;;;;;15.15;3.60;;;;;;;;;;5007962;28;20052;-69
2022/10/24 01:19:30;;;;;;;10.80;2.72;;;;;;;;;;5005787;28;20021;-69
2022/10/24 01:21:57;;;;;;;9.57;3.05;;;;;;;;;;5009558;28;20036;-69
2022/10/24 01:24:23;;;;;;;12.68;2.97;;;;;;;;;;5008309;28;20040;-70
2022/10/24 01:27:02;;;;;;;9.38;3.00;;;;;;;;;;5006052;28;20037;-70
2022/10/24 01:29:38;;;;;;;9.60;3.38;;;;;;;;;;5009640;28;20038;-70
2022/10/24 01:32:10;;;;;;;10.77;2.63;;;;;;;;;;5006161;28;20033;-70
2022/10/24 01:34:44;;;;;;;12.05;3.03;;;;;;;;;;5004754;28;20124;-70
2022/10/24 01:37:15;;;;;;;12.32;2.95;;;;;;;;;;5004165;28;20022;-70
2022/10/24 01:39:46;;;;;;;14.50;2.80;;;;;;;;;;4997573;28;20038;-70
2022/10/24 01:42:14;;;;;;;12.38;3.15;;;;;;;;;;5007024;28;20491;-70
2022/10/24 01:44:42;;;;;;;12.90;2.92;;;;;;;;;;5003460;28;20045;-69
2022/10/24 01:47:19;;;;;;;11.60;3.65;;;;;;;;;;5001737;28;20366;-69
2022/10/24 01:49:47;;;;;;;13.63;3.50;;;;;;;;;;5001859;28;20140;-69
2022/10/24 01:52:15;;;;;;;14.40;2.80;;;;;;;;;;5003909;28;20034;-70
2022/10/24 01:54:41;;;;;;;11.40;3.90;;;;;;;;;;5005434;28;20033;-69
2022/10/24 01:57:07;;;;;;;15.70;3.03;;;;;;;;;;5006191;28;20037;-69
2022/10/24 01:59:33;;;;;;;9.95;2.75;;;;;;;;;;5005583;28;20111;-69
2022/10/24 02:02:04;;;;;;;14.00;3.30;;;;;;;;;;5006113;28;20053;-70
2022/10/24 02:04:32;;;;;;;13.10;2.95;;;;;;;;;;5005186;28;20041;-70
2022/10/24 02:07:00;;;;;;;11.07;3.47;;;;;;;;;;5006971;28;20026;-69
2022/10/24 02:09:27;;;;;;;12.70;3.20;;;;;;;;;;5006250;28;20481;-70
2022/10/24 02:11:54;;;;;;;13.07;3.25;;;;;;;;;;4987321;28;20402;-69
2022/10/24 02:14:25;;;;;;;12.70;2.85;;;;;;;;;;5006934;28;20026;-70
2022/10/24 02:16:51;;;;;;;13.63;4.13;;;;;;;;;;5007961;28;20022;-69
2022/10/24 02:19:17;;;;;;;8.82;2.80;;;;;;;;;;5007248;28;20340;-70
2022/10/24 02:21:47;;;;;;;16.13;3.00;;;;;;;;;;5005577;28;20038;-69
2022/10/24 02:24:31;;;;;;;12.65;2.72;;;;;;;;;;5005797;28;20033;-69
2022/10/24 02:26:57;;;;;;;11.70;2.55;;;;;;;;;;5006549;28;20029;-70
2022/10/24 02:29:35;;;;;;;11.38;2.88;;;;;;;;;;5009931;28;20531;-70
2022/10/24 02:32:05;;;;;;;12.38;2.90;;;;;;;;;;5001855;28;20034;-70
2022/10/24 02:34:33;;;;;;;15.45;3.55;;;;;;;;;;5007392;28;20057;-69
2022/10/24 02:36:59;;;;;;;7.95;2.33;;;;;;;;;;5007545;28;20029;-71
2022/10/24 02:39:26;;;;;;;11.00;2.55;;;;;;;;;;4988229;28;20030;-70
2022/10/24 02:41:53;;;;;;;8.15;2.50;;;;;;;;;;5005180;28;20112;-70
2022/10/24 02:44:20;;;;;;;7.65;2.67;;;;;;;;;;5004981;28;20570;-70
2022/10/24 02:46:47;;;;;;;10.75;2.45;;;;;;;;;;5007255;28;20025;-70
2022/10/24 02:49:14;;;;;;;11.27;2.70;;;;;;;;;;4988057;28;20030;-70
2022/10/24 02:51:42;;;;;;;10.45;3.08;;;;;;;;;;5007285;28;20550;-69
2022/10/24 02:54:09;;;;;;;12.15;2.85;;;;;;;;;;5005974;28;20057;-69
2022/10/24 02:56:36;;;;;;;10.75;2.33;;;;;;;;;;5004675;28;20042;-68
2022/10/24 02:59:02;;;;;;;13.25;2.53;;;;;;;;;;5005740;28;20049;-68
2022/10/24 03:01:28;;;;;;;12.13;2.88;;;;;;;;;;5005984;28;20523;-69
2022/10/24 03:03:54;;;;;;;13.02;2.58;;;;;;;;;;5005871;28;20042;-69
2022/10/24 03:06:20;;;;;;;11.35;2.90;;;;;;;;;;5004199;28;20026;-69
2022/10/24 03:08:46;;;;;;;9.77;4.15;;;;;;;;;;5005469;28;20064;-69
2022/10/24 03:11:12;;;;;;;12.88;2.58;;;;;;;;;;5003752;28;20499;-69
2022/10/24 03:13:38;;;;;;;7.25;2.50;;;;;;;;;;4988494;28;20137;-70
2022/10/24 03:16:04;;;;;;;9.43;2.60;;;;;;;;;;5005744;28;20125;-69
2022/10/24 03:18:30;;;;;;;9.73;2.70;;;;;;;;;;5006382;28;20092;-69
2022/10/24 03:20:56;;;;;;;8.80;2.33;;;;;;;;;;4989719;28;20022;-69
2022/10/24 03:23:24;;;;;;;8.52;2.90;;;;;;;;;;4988051;28;20511;-69
2022/10/24 03:25:50;;;;;;;8.02;2.58;;;;;;;;;;5003645;28;20030;-69
2022/10/24 03:28:16;;;;;;;9.45;2.33;;;;;;;;;;5005178;28;20117;-70
2022/10/24 03:30:42;;;;;;;13.05;2.83;;;;;;;;;;4986896;28;20168;-69
2022/10/24 03:33:08;;;;;;;12.38;2.70;;;;;;;;;;5006627;28;20497;-69
2022/10/24 03:35:35;;;;;;;8.32;1.98;;;;;;;;;;5004794;28;20069;-70
2022/10/24 03:38:01;;;;;;;7.25;2.42;;;;;;;;;;5005195;28;20361;-69
2022/10/24 03:40:27;;;;;;;8.50;2.55;;;;;;;;;;5007014;28;20029;-70
2022/10/24 03:42:53;;;;;;;8.93;2.20;;;;;;;;;;5004552;28;20030;-73
2022/10/24 03:45:19;;;;;;;12.55;2.38;;;;;;;;;;5004444;28;20096;-72
2022/10/24 03:47:45;;;;;;;9.15;2.88;;;;;;;;;;4970505;28;20045;-72
2022/10/24 03:50:11;;;;;;;7.95;2.33;;;;;;;;;;5004667;28;20065;-69
2022/10/24 03:52:37;;;;;;;13.63;2.20;;;;;;;;;;5005734;28;20101;-71
2022/10/24 03:55:04;;;;;;;16.80;4.00;;;;;;;;;;5003045;28;20042;-70
2022/10/24 03:57:30;;;;;;;10.65;1.80;;;;;;;;;;5005388;28;20033;-69
2022/10/24 03:59:56;;;;;;;11.52;2.88;;;;;;;;;;5001571;28;20713;-68
2022/10/24 04:02:21;;;;;;;12.95;2.13;;;;;;;;;;5001016;28;20065;-70
2022/10/24 04:04:47;;;;;;;7.15;1.70;;;;;;;;;;5006014;28;20492;-69
2022/10/24 04:07:13;;;;;;;10.02;2.25;;;;;;;;;;5008795;28;20034;-69
2022/10/24 04:09:39;;;;;;;8.05;1.90;;;;;;;;;;5007546;28;20026;-69
2022/10/24 04:12:06;;;;;;;14.88;3.17;;;;;;;;;;5004531;28;20121;-69
2022/10/24 04:14:32;;;;;;;10.93;2.20;;;;;;;;;;5005003;28;20038;-70
2022/10/24 04:16:58;;;;;;;13.70;2.13;;;;;;;;;;5006126;28;20022;-70
2022/10/24 04:19:24;;;;;;;8.93;2.58;;;;;;;;;;4988331;28;20535;-69
2022/10/24 04:21:50;;;;;;;6.60;1.98;;;;;;;;;;5005635;28;20030;-69
2022/10/24 04:24:17;;;;;;;8.55;1.95;;;;;;;;;;5005444;28;20049;-70
2022/10/24 04:26:43;;;;;;;12.88;2.08;;;;;;;;;;5004459;28;20485;-70
2022/10/24 04:29:10;;;;;;;14.88;2.33;;;;;;;;;;4988341;28;20516;-70
2022/10/24 04:31:36;;;;;;;10.85;2.20;;;;;;;;;;5006550;28;20033;-71
2022/10/24 04:34:02;;;;;;;9.02;2.08;;;;;;;;;;4987208;28;20042;-71
2022/10/24 04:36:28;;;;;;;11.40;1.88;;;;;;;;;;5006135;28;20064;-72
2022/10/24 04:38:55;;;;;;;7.22;1.67;;;;;;;;;;4988826;28;20041;-72
2022/10/24 04:41:21;;;;;;;10.57;1.90;;;;;;;;;;5008845;28;20026;-72
2022/10/24 04:43:47;;;;;;;7.28;1.50;;;;;;;;;;4993492;28;20037;-71
2022/10/24 04:46:13;;;;;;;16.48;2.35;;;;;;;;;;4994280;28;20041;-69
2022/10/24 04:48:39;;;;;;;7.70;1.75;;;;;;;;;;5013127;28;20025;-71
2022/10/24 04:51:05;;;;;;;9.63;1.80;;;;;;;;;;5012710;28;20038;-69
2022/10/24 04:53:31;;;;;;;12.93;1.92;;;;;;;;;;5012039;28;20049;-68
2022/10/24 04:55:57;;;;;;;10.15;1.85;;;;;;;;;;5016800;28;20034;-69
2022/10/24 04:58:23;;;;;;;13.35;1.70;;;;;;;;;;5032736;28;20765;-68
2022/10/24 05:00:49;;;;;;;16.77;2.75;;;;;;;;;;5032643;28;20029;-69
2022/10/24 05:03:16;;;;;;;6.90;1.52;;;;;;;;;;5019838;28;20027;-70
2022/10/24 05:05:42;;;;;;;7.32;1.73;;;;;;;;;;5007803;28;20026;-69
2022/10/24 05:08:08;;;;;;;10.13;2.08;;;;;;;;;;5013227;28;20481;-70
2022/10/24 05:10:34;;;;;;;9.00;1.77;;;;;;;;;;5006477;28;20120;-71
2022/10/24 05:13:00;;;;;;;9.80;1.77;;;;;;;;;;5008933;28;20032;-69
2022/10/24 05:15:28;;;;;;;16.40;2.20;;;;;;;;;;5007054;28;20064;-69
2022/10/24 05:17:55;;;;;;;7.40;1.73;;;;;;;;;;4991695;28;20500;-69
2022/10/24 05:20:21;;;;;;;10.77;2.38;;;;;;;;;;5008278;28;20257;-70
2022/10/24 05:22:47;;;;;;;17.55;2.22;;;;;;;;;;5005588;28;20399;-69
2022/10/24 05:25:13;;;;;;;8.48;1.75;;;;;;;;;;5001798;28;20077;-70
2022/10/24 05:27:39;;;;;;;11.65;2.28;;;;;;;;;;5000805;28;20049;-69
2022/10/24 05:30:05;;;;;;;13.85;2.17;;;;;;;;;;5003237;28;20033;-70
2022/10/24 05:32:31;;;;;;;13.65;1.77;;;;;;;;;;4978468;28;20129;-70
2022/10/24 05:34:57;;;;;;;11.63;2.00;;;;;;;;;;5002883;28;20100;-70
2022/10/24 05:37:23;;;;;;;8.60;1.85;;;;;;;;;;4990047;28;20543;-70
2022/10/24 05:39:49;;;;;;;12.73;3.10;;;;;;;;;;4998468;28;20025;-69
2022/10/24 05:42:15;;;;;;;15.23;2.72;;;;;;;;;;4987313;28;20358;-70
2022/10/24 05:44:41;;;;;;;9.82;1.63;;;;;;;;;;5003828;28;20049;-68
2022/10/24 05:47:07;;;;;;;12.90;2.25;;;;;;;;;;5000706;28;20042;-70
2022/10/24 05:49:33;;;;;;;8.82;1.90;;;;;;;;;;4988685;28;21125;-69
2022/10/24 05:51:59;;;;;;;9.18;1.98;;;;;;;;;;5002002;28;20507;-70
2022/10/24 05:54:25;;;;;;;9.93;2.45;;;;;;;;;;5005964;28;20038;-69
2022/10/24 05:56:51;;;;;;;13.45;2.45;;;;;;;;;;5011938;28;20050;-69
2022/10/24 05:59:17;;;;;;;11.70;2.22;;;;;;;;;;5007155;28;20076;-69
2022/10/24 06:01:43;;;;;;;10.32;2.00;;;;;;;;;;4986911;28;20112;-69
2022/10/24 06:04:09;;;;;;;8.25;1.77;;;;;;;;;;4984770;28;20068;-71
2022/10/24 06:06:39;;;;;;;11.00;2.35;;;;;;;;;;5009531;28;20046;-70
2022/10/24 06:09:05;;;;;;;13.18;1.83;;;;;;;;;;4993946;28;20608;-70
2022/10/24 06:11:31;;;;;;;7.45;1.67;;;;;;;;;;5006817;28;20056;-70
2022/10/24 06:13:57;;;;;;;15.07;2.50;;;;;;;;;;5006754;28;20473;-71
2022/10/24 06:16:24;;;;;;;10.75;1.95;;;;;;;;;;5009326;28;20030;-68
2022/10/24 06:18:51;;;;;;;9.65;2.55;;;;;;;;;;5003367;28;20054;-72
2022/10/24 06:21:17;;;;;;;10.77;1.98;;;;;;;;;;4975710;28;20037;-70
2022/10/24 06:23:43;;;;;;;11.15;1.80;;;;;;;;;;4991400;28;20037;-72
2022/10/24 06:26:10;;;;;;;8.50;1.60;;;;;;;;;;5007154;28;20602;-71
2022/10/24 06:28:36;;;;;;;17.73;1.90;;;;;;;;;;4990948;28;20057;-72
2022/10/24 06:31:03;;;;;;;11.07;2.13;;;;;;;;;;5007379;28;20546;-71
2022/10/24 06:33:30;;;;;;;11.35;2.22;;;;;;;;;;4998901;28;20072;-71
2022/10/24 06:35:58;;;;;;;12.40;1.98;;;;;;;;;;5004152;28;20555;-71
2022/10/24 06:38:24;;;;;;;15.70;3.42;;;;;;;;;;5006185;28;20030;-71
2022/10/24 06:40:51;;;;;;;13.55;2.20;;;;;;;;;;4991608;28;20026;-72
2022/10/24 06:43:18;;;;;;;13.05;2.13;;;;;;;;;;5009336;28;20116;-71
2022/10/24 06:45:45;;;;;;;13.68;2.25;;;;;;;;;;5006583;28;20064;-72
2022/10/24 06:48:11;;;;;;;9.60;1.80;;;;;;;;;;5010682;28;20108;-72
2022/10/24 06:50:39;;;;;;;12.88;2.08;;;;;;;;;;5010224;28;20053;-71
2022/10/24 06:53:05;;;;;;;11.07;2.08;;;;;;;;;;5011019;28;20033;-71
2022/10/24 06:55:31;;;;;;;8.57;2.03;;;;;;;;;;5011096;28;20112;-74
2022/10/24 06:57:57;;;;;;;9.93;2.00;;;;;;;;;;5012537;28;20121;-72
2022/10/24 07:00:23;;;;;;;13.00;1.80;;;;;;;;;;5030563;28;20075;-71
2022/10/24 07:02:49;;;;;;;10.05;1.75;;;;;;;;;;5008946;28;20053;-71
2022/10/24 07:05:15;;;;;;;11.32;3.13;;;;;;;;;;5012855;28;20036;-72
2022/10/24 07:07:42;;;;;;;17.15;2.70;;;;;;;;;;4995269;28;20497;-72
2022/10/24 07:10:08;;;;;;;8.80;1.73;;;;;;;;;;4993325;28;20030;-71
2022/10/24 07:12:34;;;;;;;12.40;1.80;;;;;;;;;;5010553;28;20038;-71
2022/10/24 07:15:00;;;;;;;10.65;1.77;;;;;;;;;;5031047;28;20044;-72
2022/10/24 07:17:26;;;;;;;12.07;1.77;;;;;;;;;;5030273;28;20519;-71
2022/10/24 07:19:55;;;;;;;10.02;1.63;;;;;;;;;;5025754;28;20073;-72
2022/10/24 07:22:21;;;;;;;19.55;2.38;;;;;;;;;;5010872;28;20503;-71
2022/10/24 07:24:52;;;;;;;18.45;2.97;;;;;;;;;;5027836;28;20120;-70
2022/10/24 07:27:18;;;;;;;13.15;1.95;;;;;;;;;;5030064;28;20602;-71
2022/10/24 07:29:44;;;;;;;13.13;2.20;;;;;;;;;;5030244;28;20138;-72
2022/10/24 07:32:10;;;;;;;16.73;2.22;;;;;;;;;;5030147;28;20116;-71
2022/10/24 07:34:36;;;;;;;16.80;3.35;;;;;;;;;;5015830;28;20658;-71
2022/10/24 07:37:03;;;;;;;18.92;3.10;;;;;;;;;;4992830;28;20037;-71
2022/10/24 07:39:29;;;;;;;9.50;2.00;;;;;;;;;;5010225;28;20488;-70
2022/10/24 07:41:55;;;;;;;12.70;2.35;;;;;;;;;;5010331;28;20037;-71
2022/10/24 07:44:21;;;;;;;11.68;2.47;;;;;;;;;;5010580;28;20041;-72
2022/10/24 07:46:47;;;;;;;18.75;2.22;;;;;;;;;;5012179;28;20420;-72
2022/10/24 07:49:13;;;;;;;11.70;2.40;;;;;;;;;;4973124;28;20034;-72
2022/10/24 07:51:40;;;;;;;15.93;2.28;;;;;;;;;;5004147;28;20045;-72
2022/10/24 07:54:06;;;;;;;10.73;2.70;;;;;;;;;;5007700;28;20117;-71
2022/10/24 07:56:33;;;;;;;15.18;2.70;;;;;;;;;;5009823;28;20042;-71
2022/10/24 07:59:00;;;;;;;14.85;2.25;;;;;;;;;;4992147;28;20058;-70
2022/10/24 08:01:27;;;;;;;10.52;2.28;;;;;;;;;;5009214;28;20080;-72
2022/10/24 08:03:52;;;;;;;23.75;2.75;;;;;;;;;;5009058;28;20194;-72
2022/10/24 08:06:20;;;;;;;14.50;2.20;;;;;;;;;;5009423;28;20034;-69
2022/10/24 08:08:46;;;;;;;18.08;2.67;;;;;;;;;;5007492;28;20149;-71
2022/10/24 08:11:14;;;;;;;15.45;2.10;;;;;;;;;;5009074;28;20030;-72
2022/10/24 08:13:40;;;;;;;11.20;2.20;;;;;;;;;;5009735;28;20496;-71
2022/10/24 08:16:07;;;;;;;12.38;2.30;;;;;;;;;;5009896;28;20042;-70
2022/10/24 08:18:34;;;;;;;25.92;4.10;;;;;;;;;;5010078;28;20033;-71
2022/10/24 08:21:01;;;;;;;15.70;2.25;;;;;;;;;;5013582;28;20029;-71
2022/10/24 08:23:27;;;;;;;11.38;2.10;;;;;;;;;;5013812;28;20030;-73
2022/10/24 08:25:53;;;;;;;12.45;1.95;;;;;;;;;;5013752;28;20037;-73
2022/10/24 08:28:20;;;;;;;17.23;2.30;;;;;;;;;;5013599;28;20029;-73
2022/10/24 08:30:54;;;;;;;18.77;2.60;;;;;;;;;;5013235;28;20022;-72
2022/10/24 08:33:20;;;;;;;14.05;2.40;;;;;;;;;;5014000;28;20030;-71
2022/10/24 08:35:46;;;;;;;13.68;2.35;;;;;;;;;;5012847;28;20092;-71
2022/10/24 08:38:12;;;;;;;14.23;2.13;;;;;;;;;;4995872;28;20561;-70
2022/10/24 08:40:38;;;;;;;15.25;2.47;;;;;;;;;;4996260;28;20036;-71
2022/10/24 08:43:04;;;;;;;11.63;2.05;;;;;;;;;;4995362;28;20089;-71
2022/10/24 08:45:54;;;;;;;10.82;2.45;;;;;;;;;;5029228;28;20038;-71
2022/10/24 08:48:28;;;;;;;12.17;2.40;;;;;;;;;;5002890;28;20042;-71
2022/10/24 08:50:59;;;;;;;9.80;2.20;;;;;;;;;;5013965;28;20038;-71
2022/10/24 08:53:27;;;;;;;12.45;3.05;;;;;;;;;;5014152;28;20037;-71
2022/10/24 08:55:54;;;;;;;15.25;2.28;;;;;;;;;;5012645;28;20026;-70
2022/10/24 08:58:23;;;;;;;18.88;3.58;;;;;;;;;;5013100;28;20109;-70
2022/10/24 09:00:50;;;;;;;8.07;2.08;;;;;;;;;;5011853;28;20053;-74
2022/10/24 09:03:25;;;;;;;14.13;3.08;;;;;;;;;;5012139;28;20018;-69
2022/10/24 09:05:53;;;;;;;18.02;2.90;;;;;;;;;;5012725;28;20060;-70
2022/10/24 09:08:27;;;;;;;12.75;2.30;;;;;;;;;;5012209;28;20041;-71
2022/10/24 09:10:56;;;;;;;10.77;2.50;;;;;;;;;;5012757;28;20033;-70
2022/10/24 09:13:22;;;;;;;13.70;2.10;;;;;;;;;;5012011;28;20034;-70
2022/10/24 09:15:49;;;;;;;17.60;2.55;;;;;;;;;;5012806;28;20025;-70
2022/10/24 09:18:31;;;;;;;16.70;2.38;;;;;;;;;;5013170;28;20049;-71
2022/10/24 09:21:15;;;;;;;13.73;2.25;;;;;;;;;;5012649;28;20025;-70
2022/10/24 09:23:42;;;;;;;10.70;2.47;;;;;;;;;;5010845;28;20051;-71
2022/10/24 09:26:13;;;;;;;16.30;2.78;;;;;;;;;;5012670;28;20018;-70
2022/10/24 09:28:39;;;;;;;10.38;1.70;;;;;;;;;;5011726;28;20030;-69
2022/10/24 09:31:25;;;;;;;9.18;2.70;;;;;;;;;;5003287;28;20412;-70
2022/10/24 09:33:53;;;;;;;15.18;2.22;;;;;;;;;;5010701;28;20203;-70
2022/10/24 09:36:19;;;;;;;13.63;2.63;;;;;;;;;;5011321;28;20026;-70
2022/10/24 09:38:47;;;;;;;12.05;2.53;;;;;;;;;;5011811;28;20034;-70
2022/10/24 09:41:32;;;;;;;14.82;2.30;;;;;;;;;;5009438;28;20018;-70
2022/10/24 09:43:59;;;;;;;11.75;2.58;;;;;;;;;;4994178;28;20032;-71
2022/10/24 09:46:26;;;;;;;11.68;2.17;;;;;;;;;;5012376;28;20481;-70
2022/10/24 09:48:58;;;;;;;12.43;2.88;;;;;;;;;;5012044;28;20497;-71
2022/10/24 09:51:35;;;;;;;11.07;1.85;;;;;;;;;;5011241;28;20053;-70
2022/10/24 09:54:19;;;;;;;12.40;2.28;;;;;;;;;;5011823;28;20088;-70
2022/10/24 09:56:53;;;;;;;13.80;2.10;;;;;;;;;;5012360;28;20097;-70
2022/10/24 09:59:22;;;;;;;14.82;2.40;;;;;;;;;;5012494;28;20041;-71
2022/10/24 10:01:48;;;;;;;13.80;2.38;;;;;;;;;;5011501;28;20033;-72
2022/10/24 10:04:18;;;;;;;20.13;2.22;;;;;;;;;;5011520;28;20068;-70
2022/10/24 10:06:46;;;;;;;11.80;1.98;;;;;;;;;;5011879;28;20373;-72
2022/10/24 10:09:14;;;;;;;17.48;3.28;;;;;;;;;;5011496;28;20551;-72
2022/10/24 10:11:40;;;;;;;16.17;2.65;;;;;;;;;;5007370;28;20021;-70
2022/10/24 10:14:19;;;;;;;10.68;2.00;;;;;;;;;;5011481;28;20026;-70
2022/10/24 10:16:45;;;;;;;9.15;2.38;;;;;;;;;;5011947;28;20022;-71
2022/10/24 10:19:20;;;;;;;10.40;2.03;;;;;;;;;;5011923;28;20056;-70
2022/10/24 10:22:00;;;;;;;8.43;2.33;;;;;;;;;;5010729;28;20547;-71
2022/10/24 10:24:38;;;;;;;8.87;1.83;;;;;;;;;;5009620;28;20029;-72
2022/10/24 10:27:23;;;;;;;11.60;1.70;;;;;;;;;;5010846;28;20289;-71
2022/10/24 10:29:49;;;;;;;16.27;2.40;;;;;;;;;;5012156;28;20152;-72
2022/10/24 10:32:19;;;;;;;18.13;2.40;;;;;;;;;;5010357;28;20152;-72
2022/10/24 10:35:11;;;;;;;11.75;2.35;;;;;;;;;;5011153;28;20029;-72
2022/10/24 10:37:41;;;;;;;9.23;1.80;;;;;;;;;;5005709;28;20041;-71
2022/10/24 10:40:16;;;;;;;23.80;4.10;;;;;;;;;;5011197;28;20033;-71
2022/10/24 10:42:47;;;;;;;8.57;1.98;;;;;;;;;;4995699;28;20034;-72
2022/10/24 10:45:13;;;;;;;16.23;2.95;;;;;;;;;;5010696;28;20101;-71
2022/10/24 10:47:58;;;;;;;7.68;1.58;;;;;;;;;;5011388;28;20508;-71
2022/10/24 10:50:33;;;;;;;14.88;2.00;;;;;;;;;;4991886;28;20520;-71
2022/10/24 10:53:05;;;;;;;13.32;2.00;;;;;;;;;;4974249;28;20036;-71
2022/10/24 10:55:37;;;;;;;12.32;1.80;;;;;;;;;;4990389;28;20322;-70
2022/10/24 10:58:17;;;;;;;11.00;2.17;;;;;;;;;;4991591;28;20058;-70
2022/10/24 11:00:49;;;;;;;8.30;1.83;;;;;;;;;;4990110;28;20022;-72
2022/10/24 11:03:15;;;;;;;10.30;1.77;;;;;;;;;;4972151;28;20035;-71
2022/10/24 11:05:47;;;;;;;8.38;1.67;;;;;;;;;;4991744;28;20053;-72
2022/10/24 11:08:38;;;;;;;11.65;1.42;;;;;;;;;;4991184;28;20034;-72
2022/10/24 11:11:10;;;;;;;12.73;1.80;;;;;;;;;;4979798;28;20065;-71
2022/10/24 11:13:38;;;;;;;13.80;2.50;;;;;;;;;;4974126;28;20497;-72
2022/10/24 11:16:06;;;;;;;10.68;1.65;;;;;;;;;;4991767;28;20026;-70
2022/10/24 11:18:41;;;;;;;15.20;2.13;;;;;;;;;;4974443;28;20034;-71
2022/10/24 11:21:09;;;;;;;13.48;1.65;;;;;;;;;;4992293;28;20105;-70
2022/10/24 11:23:41;;;;;;;5.93;1.33;;;;;;;;;;4990010;28;20497;-71
2022/10/24 11:26:07;;;;;;;8.07;1.60;;;;;;;;;;4990392;28;20039;-71
2022/10/24 11:28:36;;;;;;;7.38;1.85;;;;;;;;;;4991557;28;20023;-71
2022/10/24 11:31:08;;;;;;;5.40;1.50;;;;;;;;;;4991220;28;20069;-72
2022/10/24 11:33:49;;;;;;;4.55;1.60;;;;;;;;;;4990796;28;20030;-71
2022/10/24 11:36:15;;;;;;;11.30;2.20;;;;;;;;;;4971788;28;20057;-71
2022/10/24 11:38:59;;;;;;;8.10;1.55;;;;;;;;;;4989254;28;20019;-71
2022/10/24 11:41:37;;;;;;;8.18;1.98;;;;;;;;;;4995687;28;20026;-70
2022/10/24 11:44:14;;;;;;;11.85;2.75;;;;;;;;;;4969675;28;20027;-71
2022/10/24 11:46:42;;;;;;;8.93;1.90;;;;;;;;;;4984111;28;20113;-71
2022/10/24 11:49:20;;;;;;;6.20;1.60;;;;;;;;;;4984381;28;20030;-69
2022/10/24 11:51:59;;;;;;;10.23;2.72;;;;;;;;;;4986210;28;20030;-69
2022/10/24 11:54:29;;;;;;;8.93;2.33;;;;;;;;;;4979389;28;20049;-70
2022/10/24 11:56:58;;;;;;;11.45;2.13;;;;;;;;;;4989526;28;20133;-71
2022/10/24 11:59:24;;;;;;;11.02;2.40;;;;;;;;;;4983434;28;20030;-69
2022/10/24 12:02:22;;;;;;;11.73;2.15;;;;;;;;;;4988191;28;20031;-70
2022/10/24 12:05:07;;;;;;;11.43;2.33;;;;;;;;;;4957808;28;20076;-70
2022/10/24 12:07:45;;;;;;;8.55;1.98;;;;;;;;;;4971899;28;20493;-71
2022/10/24 12:10:14;;;;;;;9.45;2.22;;;;;;;;;;4981525;28;20023;-72
2022/10/24 12:12:59;;;;;;;12.95;2.10;;;;;;;;;;4971222;28;20019;-70
2022/10/24 12:15:28;;;;;;;8.48;2.30;;;;;;;;;;4986077;28;20037;-70
2022/10/24 12:18:05;;;;;;;12.38;2.63;;;;;;;;;;4989768;28;20022;-71
2022/10/24 12:20:31;;;;;;;25.33;4.07;;;;;;;;;;4991628;28;20086;-71
2022/10/24 12:22:58;;;;;;;14.43;2.15;;;;;;;;;;4994129;28;20101;-69
2022/10/24 12:25:24;;;;;;;11.43;2.88;;;;;;;;;;4992865;28;20105;-69
2022/10/24 12:27:54;;;;;;;11.27;3.47;;;;;;;;;;4992521;28;20166;-70
2022/10/24 12:30:23;;;;;;;12.48;3.55;;;;;;;;;;4994426;28;20032;-69
2022/10/24 12:32:51;;;;;;;11.85;2.58;;;;;;;;;;4993585;28;20662;-69
2022/10/24 12:35:26;;;;;;;9.90;2.35;;;;;;;;;;4993988;28;20478;-69
2022/10/24 12:37:56;;;;;;;14.77;2.42;;;;;;;;;;4992214;28;20030;-71
2022/10/24 12:40:41;;;;;;;12.38;2.90;;;;;;;;;;4992677;28;20061;-67
2022/10/24 12:43:12;;;;;;;9.30;2.22;;;;;;;;;;4991303;28;20085;-69
2022/10/24 12:45:38;;;;;;;13.95;2.10;;;;;;;;;;4988786;28;20045;-69
2022/10/24 12:48:25;;;;;;;12.43;2.30;;;;;;;;;;4982280;28;20030;-69
2022/10/24 12:50:59;;;;;;;11.48;2.10;;;;;;;;;;4971587;28;20038;-70
2022/10/24 12:53:31;;;;;;;13.88;2.30;;;;;;;;;;4989567;28;20046;-70
2022/10/24 12:56:04;;;;;;;12.32;2.33;;;;;;;;;;4992839;28;20053;-69
2022/10/24 12:58:33;;;;;;;14.90;3.03;;;;;;;;;;4993442;28;20050;-70
2022/10/24 13:01:09;;;;;;;13.82;2.83;;;;;;;;;;4992269;28;20030;-71
2022/10/24 13:03:44;;;;;;;12.57;3.00;;;;;;;;;;4991664;28;20018;-71
2022/10/24 13:06:21;;;;;;;14.48;3.00;;;;;;;;;;4993449;28;20031;-71
2022/10/24 13:08:47;;;;;;;15.00;2.72;;;;;;;;;;4991674;28;20030;-72
2022/10/24 13:11:28;;;;;;;14.65;2.78;;;;;;;;;;4993540;28;20114;-73
2022/10/24 13:14:13;;;;;;;10.40;3.22;;;;;;;;;;4983744;28;20506;-74
2022/10/24 13:16:43;;;;;;;21.20;4.30;;;;;;;;;;4975425;28;20066;-74
2022/10/24 13:19:17;;;;;;;19.17;5.15;;;;;;;;;;4975394;28;20486;-73
2022/10/24 13:21:44;;;;;;;19.30;4.68;;;;;;;;;;4994396;28;20026;-72
2022/10/24 13:24:21;;;;;;;17.58;4.78;;;;;;;;;;4994072;28;20537;-72
2022/10/24 13:26:47;;;;;;;13.38;4.22;;;;;;;;;;4976385;28;20038;-73
2022/10/24 13:29:25;;;;;;;20.50;4.22;;;;;;;;;;4990469;28;20030;-72
2022/10/24 13:31:52;;;;;;;17.52;4.93;;;;;;;;;;4993769;28;20117;-72
2022/10/24 13:34:20;;;;;;;12.25;3.55;;;;;;;;;;4992467;28;20037;-73
2022/10/24 13:36:51;;;;;;;16.83;4.10;;;;;;;;;;4994703;28;20033;-72
2022/10/24 13:39:20;;;;;;;17.95;4.75;;;;;;;;;;4973923;28;20556;-71
2022/10/24 13:41:49;;;;;;;19.33;4.28;;;;;;;;;;4980824;28;20036;-73
2022/10/24 13:44:20;;;;;;;16.63;4.47;;;;;;;;;;4990259;28;20042;-70
2022/10/24 13:46:52;;;;;;;20.05;5.25;;;;;;;;;;4987486;28;21224;-72
2022/10/24 13:49:25;;;;;;;18.73;4.22;;;;;;;;;;4987796;28;20053;-71
2022/10/24 13:51:52;;;;;;;18.08;4.88;;;;;;;;;;4989462;28;20026;-73
2022/10/24 13:54:18;;;;;;;14.43;4.35;;;;;;;;;;4988772;28;20033;-72
2022/10/24 13:56:44;;;;;;;14.35;4.50;;;;;;;;;;4987961;28;20505;-72
2022/10/24 13:59:26;;;;;;;18.17;4.47;;;;;;;;;;4984982;28;20099;-72
2022/10/24 14:01:53;;;;;;;22.75;5.68;;;;;;;;;;4989751;28;20030;-72
2022/10/24 14:04:18;;;;;;;17.42;5.55;;;;;;;;;;4991063;28;20030;-72
2022/10/24 14:06:45;;;;;;;16.17;5.03;;;;;;;;;;4978257;28;20633;-72
2022/10/24 14:09:11;;;;;;;23.17;4.65;;;;;;;;;;4984256;28;20050;-71
2022/10/24 14:11:41;;;;;;;18.52;3.65;;;;;;;;;;4972334;28;20042;-72
2022/10/24 14:14:14;;;;;;;26.60;6.43;;;;;;;;;;4983245;28;20030;-70
2022/10/24 14:16:40;;;;;;;17.25;4.07;;;;;;;;;;4971351;28;20034;-72
2022/10/24 14:19:10;;;;;;;17.05;4.53;;;;;;;;;;4987252;28;20042;-71
2022/10/24 14:21:47;;;;;;;22.92;3.95;;;;;;;;;;4988753;28;20026;-72
2022/10/24 14:24:15;;;;;;;13.15;3.65;;;;;;;;;;4987410;28;20062;-70
2022/10/24 14:26:41;;;;;;;17.25;2.58;;;;;;;;;;4991452;28;20058;-70
2022/10/24 14:29:26;;;;;;;20.45;3.92;;;;;;;;;;4991738;28;20042;-70
2022/10/24 14:31:57;;;;;;;13.73;3.15;;;;;;;;;;4992001;28;20106;-71
2022/10/24 14:34:23;;;;;;;;;;;;;;;;;;4992700;28;20034;-71
2022/10/24 14:36:49;;;;;;;17.38;3.72;;;;;;;;;;4991086;28;19917;-69
2022/10/24 14:39:22;;;;;;;16.23;3.30;;;;;;;;;;4991530;28;20053;-70
2022/10/24 14:41:48;;;;;;;17.33;3.13;;;;;;;;;;4990822;28;20022;-71
2022/10/24 14:44:15;;;;;;;18.65;3.70;;;;;;;;;;4991683;28;20030;-70